sensor_id;sensor_type;location;lat;lon;timestamp;pressure;altitude;pressure_sealevel;temperature;humidity
49583;BME280;36329;48.816;44.624;2024-03-25T00:01:51;100643;;;6.3;92
49583;BME280;36329;48.816;44.624;2024-03-25T00:04:53;100651;;;6.1;92.9
49583;BME280;36329;48.816;44.624;2024-03-25T00:07:56;100651;;;5.9;95.6
49583;BME280;36329;48.816;44.624;2024-03-25T00:10:58;100643;;;5.8;95.5
49583;BME280;36329;48.816;44.624;2024-03-25T00:14:00;100640;;;6;95.1
49583;BME280;36329;48.816;44.624;2024-03-25T00:17:03;100643;;;6.2;93.7
49583;BME280;36329;48.816;44.624;2024-03-25T00:20:06;100659;;;6.1;93.1
49583;BME280;36329;48.816;44.624;2024-03-25T00:23:09;100665;;;5.2;98
49583;BME280;36329;48.816;44.624;2024-03-25T00:26:12;100670;;;5;100
49583;BME280;36329;48.816;44.624;2024-03-25T00:29:15;100672;;;5;100
49583;BME280;36329;48.816;44.624;2024-03-25T00:32:17;100663;;;5.1;100
49583;BME280;36329;48.816;44.624;2024-03-25T00:35:19;100657;;;5.3;99.3
49583;BME280;36329;48.816;44.624;2024-03-25T00:38:22;100664;;;5.5;98.4
49583;BME280;36329;48.816;44.624;2024-03-25T00:41:24;100670;;;5.3;99
49583;BME280;36329;48.816;44.624;2024-03-25T00:44:26;100659;;;5;100
49583;BME280;36329;48.816;44.624;2024-03-25T00:47:29;100658;;;5.2;100
49583;BME280;36329;48.816;44.624;2024-03-25T00:50:31;100661;;;5.1;100
49583;BME280;36329;48.816;44.624;2024-03-25T00:53:33;100662;;;5.1;100
49583;BME280;36329;48.816;44.624;2024-03-25T00:56:35;100672;;;5.1;100
49583;BME280;36329;48.816;44.624;2024-03-25T00:59:38;100671;;;5;100
49583;BME280;36329;48.816;44.624;2024-03-25T01:02:41;100675;;;4.8;100
49583;BME280;36329;48.816;44.624;2024-03-25T01:05:43;100665;;;4.8;100
49583;BME280;36329;48.816;44.624;2024-03-25T01:08:45;100661;;;4.8;100
49583;BME280;36329;48.816;44.624;2024-03-25T01:11:48;100644;;;4.8;100
49583;BME280;36329;48.816;44.624;2024-03-25T01:14:50;100639;;;5.2;100
49583;BME280;36329;48.816;44.624;2024-03-25T01:17:52;100644;;;5.4;100
49583;BME280;36329;48.816;44.624;2024-03-25T01:20:54;100643;;;5.2;100
49583;BME280;36329;48.816;44.624;2024-03-25T01:23:56;100648;;;5.5;100
49583;BME280;36329;48.816;44.624;2024-03-25T01:26:58;100644;;;5.4;100
49583;BME280;36329;48.816;44.624;2024-03-25T01:30:01;100642;;;4.9;100
49583;BME280;36329;48.816;44.624;2024-03-25T01:33:06;100635;;;5;100
49583;BME280;36329;48.816;44.624;2024-03-25T01:36:09;100622;;;5.5;100
49583;BME280;36329;48.816;44.624;2024-03-25T01:39:11;100619;;;5.6;100
49583;BME280;36329;48.816;44.624;2024-03-25T01:42:13;100620;;;5.6;100
49583;BME280;36329;48.816;44.624;2024-03-25T01:45:16;100623;;;5.7;99.6
49583;BME280;36329;48.816;44.624;2024-03-25T01:48:18;100615;;;5.7;99.3
49583;BME280;36329;48.816;44.624;2024-03-25T01:51:21;100620;;;5.7;98.5
49583;BME280;36329;48.816;44.624;2024-03-25T01:54:24;100618;;;5.7;98.8
49583;BME280;36329;48.816;44.624;2024-03-25T01:57:27;100611;;;5.7;98.2
49583;BME280;36329;48.816;44.624;2024-03-25T02:00:29;100616;;;5.4;100
49583;BME280;36329;48.816;44.624;2024-03-25T02:03:32;100623;;;5.4;100
49583;BME280;36329;48.816;44.624;2024-03-25T02:06:35;100615;;;5.5;99.9
49583;BME280;36329;48.816;44.624;2024-03-25T02:09:39;100624;;;5.6;99.9
49583;BME280;36329;48.816;44.624;2024-03-25T02:12:42;100631;;;5.5;98.8
49583;BME280;36329;48.816;44.624;2024-03-25T02:15:45;100633;;;5.4;100
49583;BME280;36329;48.816;44.624;2024-03-25T02:18:48;100633;;;5.6;99.6
49583;BME280;36329;48.816;44.624;2024-03-25T02:21:50;100637;;;5.6;100
49583;BME280;36329;48.816;44.624;2024-03-25T02:24:53;100638;;;5.5;100
49583;BME280;36329;48.816;44.624;2024-03-25T02:27:59;100627;;;5.7;97.3
49583;BME280;36329;48.816;44.624;2024-03-25T02:31:01;100629;;;5.6;97.4
49583;BME280;36329;48.816;44.624;2024-03-25T02:34:03;100636;;;5.7;97.4
49583;BME280;36329;48.816;44.624;2024-03-25T02:37:05;100633;;;5.8;96.9
49583;BME280;36329;48.816;44.624;2024-03-25T02:40:09;100633;;;5.8;97.2
49583;BME280;36329;48.816;44.624;2024-03-25T02:43:12;100629;;;5.9;97.1
49583;BME280;36329;48.816;44.624;2024-03-25T02:46:15;100627;;;5.7;96.3
49583;BME280;36329;48.816;44.624;2024-03-25T02:49:17;100641;;;5.8;96.6
49583;BME280;36329;48.816;44.624;2024-03-25T02:52:20;100646;;;5.6;98.6
49583;BME280;36329;48.816;44.624;2024-03-25T02:55:22;100645;;;5.7;97
49583;BME280;36329;48.816;44.624;2024-03-25T02:58:24;100650;;;5.5;98.8
49583;BME280;36329;48.816;44.624;2024-03-25T03:01:27;100648;;;5.3;100
49583;BME280;36329;48.816;44.624;2024-03-25T03:04:29;100651;;;5.1;100
49583;BME280;36329;48.816;44.624;2024-03-25T03:07:31;100650;;;5.2;100
49583;BME280;36329;48.816;44.624;2024-03-25T03:10:33;100648;;;5.2;100
49583;BME280;36329;48.816;44.624;2024-03-25T03:13:35;100643;;;5.4;100
49583;BME280;36329;48.816;44.624;2024-03-25T03:16:37;100647;;;5.4;99.8
49583;BME280;36329;48.816;44.624;2024-03-25T03:19:40;100649;;;5.1;100
49583;BME280;36329;48.816;44.624;2024-03-25T03:22:42;100640;;;5.1;100
49583;BME280;36329;48.816;44.624;2024-03-25T03:25:44;100635;;;5.2;100
49583;BME280;36329;48.816;44.624;2024-03-25T03:28:47;100629;;;5.4;100
49583;BME280;36329;48.816;44.624;2024-03-25T03:31:49;100628;;;5.3;100
49583;BME280;36329;48.816;44.624;2024-03-25T03:34:52;100624;;;5.3;99.7
49583;BME280;36329;48.816;44.624;2024-03-25T03:37:54;100628;;;5.3;99.2
49583;BME280;36329;48.816;44.624;2024-03-25T03:40:57;100630;;;5.4;98.2
49583;BME280;36329;48.816;44.624;2024-03-25T03:44:00;100629;;;5.2;98.6
49583;BME280;36329;48.816;44.624;2024-03-25T03:47:02;100637;;;5.3;97.5
49583;BME280;36329;48.816;44.624;2024-03-25T03:50:05;100636;;;5.3;95.7
49583;BME280;36329;48.816;44.624;2024-03-25T03:53:07;100638;;;5.3;96
49583;BME280;36329;48.816;44.624;2024-03-25T03:56:09;100637;;;5.4;95
49583;BME280;36329;48.816;44.624;2024-03-25T03:59:11;100644;;;5.5;94.2
49583;BME280;36329;48.816;44.624;2024-03-25T04:02:13;100647;;;5.5;94.3
49583;BME280;36329;48.816;44.624;2024-03-25T04:05:16;100645;;;5.6;94.3
49583;BME280;36329;48.816;44.624;2024-03-25T04:08:18;100647;;;5.7;94.7
49583;BME280;36329;48.816;44.624;2024-03-25T04:11:20;100654;;;5.5;96.5
49583;BME280;36329;48.816;44.624;2024-03-25T04:14:23;100654;;;5.4;99.6
49583;BME280;36329;48.816;44.624;2024-03-25T04:17:25;100660;;;5.6;98.6
49583;BME280;36329;48.816;44.624;2024-03-25T04:20:27;100649;;;5.7;98
49583;BME280;36329;48.816;44.624;2024-03-25T04:23:29;100654;;;5;100
49583;BME280;36329;48.816;44.624;2024-03-25T04:26:31;100665;;;5.3;100
49583;BME280;36329;48.816;44.624;2024-03-25T04:29:34;100668;;;5.2;100
49583;BME280;36329;48.816;44.624;2024-03-25T04:32:37;100672;;;5.3;100
49583;BME280;36329;48.816;44.624;2024-03-25T04:35:40;100670;;;5.6;100
49583;BME280;36329;48.816;44.624;2024-03-25T04:38:43;100666;;;5.2;100
49583;BME280;36329;48.816;44.624;2024-03-25T04:41:45;100671;;;5.3;100
49583;BME280;36329;48.816;44.624;2024-03-25T04:44:48;100673;;;5.5;100
49583;BME280;36329;48.816;44.624;2024-03-25T04:47:50;100675;;;5.8;98.2
49583;BME280;36329;48.816;44.624;2024-03-25T04:50:52;100671;;;5.4;99.3
49583;BME280;36329;48.816;44.624;2024-03-25T04:53:54;100681;;;5.5;99.8
49583;BME280;36329;48.816;44.624;2024-03-25T04:56:56;100676;;;5.8;97.4
49583;BME280;36329;48.816;44.624;2024-03-25T04:59:58;100679;;;5.8;97.1
49583;BME280;36329;48.816;44.624;2024-03-25T05:03:01;100682;;;5.8;97.3
49583;BME280;36329;48.816;44.624;2024-03-25T05:06:03;100690;;;5.7;97.7
49583;BME280;36329;48.816;44.624;2024-03-25T05:09:06;100692;;;5.6;99
49583;BME280;36329;48.816;44.624;2024-03-25T05:12:08;100701;;;5.7;98.2
49583;BME280;36329;48.816;44.624;2024-03-25T05:15:10;100701;;;5.3;100
49583;BME280;36329;48.816;44.624;2024-03-25T05:18:12;100704;;;5.5;99.3
49583;BME280;36329;48.816;44.624;2024-03-25T05:21:15;100707;;;5.5;99.1
49583;BME280;36329;48.816;44.624;2024-03-25T05:24:17;100714;;;5.4;98.8
49583;BME280;36329;48.816;44.624;2024-03-25T05:27:19;100714;;;5.5;99.4
49583;BME280;36329;48.816;44.624;2024-03-25T05:30:21;100709;;;5.6;98.9
49583;BME280;36329;48.816;44.624;2024-03-25T05:33:25;100709;;;5.9;96.5
49583;BME280;36329;48.816;44.624;2024-03-25T05:36:27;100712;;;5.8;95.8
49583;BME280;36329;48.816;44.624;2024-03-25T05:39:29;100713;;;6.1;94.4
49583;BME280;36329;48.816;44.624;2024-03-25T05:42:31;100710;;;6.3;93
49583;BME280;36329;48.816;44.624;2024-03-25T05:45:33;100713;;;6.2;93.1
49583;BME280;36329;48.816;44.624;2024-03-25T05:48:35;100718;;;5.8;95.7
49583;BME280;36329;48.816;44.624;2024-03-25T05:51:38;100718;;;6.1;96.4
49583;BME280;36329;48.816;44.624;2024-03-25T05:54:40;100724;;;6.1;95.8
49583;BME280;36329;48.816;44.624;2024-03-25T05:57:42;100730;;;6.1;95.3
49583;BME280;36329;48.816;44.624;2024-03-25T06:00:46;100728;;;6.2;94.4
49583;BME280;36329;48.816;44.624;2024-03-25T06:03:49;100727;;;6.4;94
49583;BME280;36329;48.816;44.624;2024-03-25T06:06:51;100724;;;6.5;93.1
49583;BME280;36329;48.816;44.624;2024-03-25T06:09:53;100719;;;6.5;92.8
49583;BME280;36329;48.816;44.624;2024-03-25T06:12:55;100717;;;6.6;92.5
49583;BME280;36329;48.816;44.624;2024-03-25T06:15:57;100719;;;6.8;92.7
49583;BME280;36329;48.816;44.624;2024-03-25T06:19:00;100716;;;7;89.5
49583;BME280;36329;48.816;44.624;2024-03-25T06:22:02;100720;;;7.2;89.5
49583;BME280;36329;48.816;44.624;2024-03-25T06:25:04;100719;;;6.9;90
49583;BME280;36329;48.816;44.624;2024-03-25T06:28:07;100721;;;6.9;90.6
49583;BME280;36329;48.816;44.624;2024-03-25T06:31:09;100726;;;7.3;89.4
49583;BME280;36329;48.816;44.624;2024-03-25T06:34:12;100724;;;7.3;89.3
49583;BME280;36329;48.816;44.624;2024-03-25T06:37:14;100723;;;6.9;89.9
49583;BME280;36329;48.816;44.624;2024-03-25T06:40:16;100720;;;6.7;92.7
49583;BME280;36329;48.816;44.624;2024-03-25T06:43:20;100720;;;7.1;89.7
49583;BME280;36329;48.816;44.624;2024-03-25T06:46:22;100722;;;7.3;89.2
49583;BME280;36329;48.816;44.624;2024-03-25T06:49:24;100718;;;7.4;87.9
49583;BME280;36329;48.816;44.624;2024-03-25T06:52:26;100715;;;7.5;88.4
49583;BME280;36329;48.816;44.624;2024-03-25T06:55:28;100722;;;7.7;86.3
49583;BME280;36329;48.816;44.624;2024-03-25T06:58:31;100721;;;7.6;86.5
49583;BME280;36329;48.816;44.624;2024-03-25T07:01:33;100715;;;7.7;86.6
49583;BME280;36329;48.816;44.624;2024-03-25T07:04:35;100709;;;8.2;84.6
49583;BME280;36329;48.816;44.624;2024-03-25T07:07:37;100703;;;8.7;81.1
49583;BME280;36329;48.816;44.624;2024-03-25T07:10:42;100693;;;9.2;79.5
49583;BME280;36329;48.816;44.624;2024-03-25T07:13:44;100700;;;9.3;77.2
49583;BME280;36329;48.816;44.624;2024-03-25T07:16:46;100696;;;10;73.9
49583;BME280;36329;48.816;44.624;2024-03-25T07:19:48;100697;;;10.4;72.6
49583;BME280;36329;48.816;44.624;2024-03-25T07:22:51;100693;;;10.4;70.6
49583;BME280;36329;48.816;44.624;2024-03-25T07:25:53;100684;;;10.5;70.3
49583;BME280;36329;48.816;44.624;2024-03-25T07:28:56;100681;;;10.4;70.1
49583;BME280;36329;48.816;44.624;2024-03-25T07:31:58;100674;;;10.8;68.1
49583;BME280;36329;48.816;44.624;2024-03-25T07:35:01;100674;;;11.4;65.8
49583;BME280;36329;48.816;44.624;2024-03-25T07:38:05;100671;;;11.6;65.6
49583;BME280;36329;48.816;44.624;2024-03-25T07:41:08;100665;;;11.9;63.2
49583;BME280;36329;48.816;44.624;2024-03-25T07:44:10;100658;;;11.4;65.4
49583;BME280;36329;48.816;44.624;2024-03-25T07:47:12;100661;;;12.1;63.6
49583;BME280;36329;48.816;44.624;2024-03-25T07:50:14;100654;;;12.3;63.5
49583;BME280;36329;48.816;44.624;2024-03-25T07:53:16;100657;;;12.4;60.8
49583;BME280;36329;48.816;44.624;2024-03-25T07:56:18;100655;;;12.7;60.7
49583;BME280;36329;48.816;44.624;2024-03-25T07:59:20;100652;;;13;58.8
49583;BME280;36329;48.816;44.624;2024-03-25T08:02:23;100656;;;12.8;58.7
49583;BME280;36329;48.816;44.624;2024-03-25T08:05:25;100653;;;13.1;59.4
49583;BME280;36329;48.816;44.624;2024-03-25T08:08:27;100646;;;12.7;60.5
49583;BME280;36329;48.816;44.624;2024-03-25T08:11:29;100651;;;12.7;59.9
49583;BME280;36329;48.816;44.624;2024-03-25T08:14:31;100643;;;13.2;58.7
49583;BME280;36329;48.816;44.624;2024-03-25T08:17:34;100648;;;13.6;57.6
49583;BME280;36329;48.816;44.624;2024-03-25T08:20:36;100647;;;14.1;55.4
49583;BME280;36329;48.816;44.624;2024-03-25T08:23:38;100646;;;13.6;56.9
49583;BME280;36329;48.816;44.624;2024-03-25T08:26:40;100645;;;14.2;55.6
49583;BME280;36329;48.816;44.624;2024-03-25T08:29:42;100641;;;13.7;57.1
49583;BME280;36329;48.816;44.624;2024-03-25T08:32:44;100634;;;13.7;56.8
49583;BME280;36329;48.816;44.624;2024-03-25T08:35:47;100631;;;14.9;54.6
49583;BME280;36329;48.816;44.624;2024-03-25T08:38:50;100626;;;15.3;52.4
49583;BME280;36329;48.816;44.624;2024-03-25T08:41:52;100622;;;15.4;52.1
49583;BME280;36329;48.816;44.624;2024-03-25T08:44:54;100616;;;15.9;50.6
49583;BME280;36329;48.816;44.624;2024-03-25T08:47:56;100617;;;15.8;51.1
49583;BME280;36329;48.816;44.624;2024-03-25T08:50:59;100613;;;16.2;49.8
49583;BME280;36329;48.816;44.624;2024-03-25T08:54:01;100607;;;16.5;48.6
49583;BME280;36329;48.816;44.624;2024-03-25T08:57:03;100602;;;16.8;48.3
49583;BME280;36329;48.816;44.624;2024-03-25T09:00:06;100605;;;16.4;48.4
49583;BME280;36329;48.816;44.624;2024-03-25T09:03:08;100598;;;15.7;50.2
49583;BME280;36329;48.816;44.624;2024-03-25T09:06:11;100588;;;16.1;49.1
49583;BME280;36329;48.816;44.624;2024-03-25T09:09:13;100590;;;16.4;48.7
49583;BME280;36329;48.816;44.624;2024-03-25T09:12:15;100585;;;16;49.4
49583;BME280;36329;48.816;44.624;2024-03-25T09:15:17;100585;;;15.9;49.7
49583;BME280;36329;48.816;44.624;2024-03-25T09:18:19;100581;;;16;49.9
49583;BME280;36329;48.816;44.624;2024-03-25T09:21:22;100570;;;16;49.7
49583;BME280;36329;48.816;44.624;2024-03-25T09:24:25;100563;;;16.3;49.1
49583;BME280;36329;48.816;44.624;2024-03-25T09:27:27;100559;;;16.4;48.5
49583;BME280;36329;48.816;44.624;2024-03-25T09:30:29;100554;;;17.1;47
49583;BME280;36329;48.816;44.624;2024-03-25T09:33:31;100550;;;16.8;47.7
49583;BME280;36329;48.816;44.624;2024-03-25T09:36:34;100544;;;16.8;47.5
49583;BME280;36329;48.816;44.624;2024-03-25T09:39:37;100548;;;16.2;49.3
49583;BME280;36329;48.816;44.624;2024-03-25T09:42:43;100542;;;16;49.6
49583;BME280;36329;48.816;44.624;2024-03-25T09:45:49;100539;;;16.1;49.5
49583;BME280;36329;48.816;44.624;2024-03-25T09:48:52;100535;;;16.5;48.6
49583;BME280;36329;48.816;44.624;2024-03-25T09:51:55;100535;;;16.2;49.6
49583;BME280;36329;48.816;44.624;2024-03-25T09:54:57;100529;;;15.8;50.4
49583;BME280;36329;48.816;44.624;2024-03-25T09:58:00;100526;;;15.8;50.8
49583;BME280;36329;48.816;44.624;2024-03-25T10:01:03;100513;;;16.3;49.9
49583;BME280;36329;48.816;44.624;2024-03-25T10:04:05;100518;;;16.2;49.2
49583;BME280;36329;48.816;44.624;2024-03-25T10:07:07;100498;;;16.4;49.1
49583;BME280;36329;48.816;44.624;2024-03-25T10:10:09;100496;;;16.3;49.1
49583;BME280;36329;48.816;44.624;2024-03-25T10:13:12;100492;;;16.2;49.3
49583;BME280;36329;48.816;44.624;2024-03-25T10:16:14;100488;;;16.1;49.5
49583;BME280;36329;48.816;44.624;2024-03-25T10:19:16;100483;;;15.6;50.3
49583;BME280;36329;48.816;44.624;2024-03-25T10:22:18;100474;;;16.1;50.2
49583;BME280;36329;48.816;44.624;2024-03-25T10:25:23;100473;;;16;49.7
49583;BME280;36329;48.816;44.624;2024-03-25T10:28:26;100471;;;15.7;50.2
49583;BME280;36329;48.816;44.624;2024-03-25T10:31:29;100469;;;16.1;50
49583;BME280;36329;48.816;44.624;2024-03-25T10:34:31;100468;;;16.3;49.7
49583;BME280;36329;48.816;44.624;2024-03-25T10:37:34;100468;;;15.9;49.7
49583;BME280;36329;48.816;44.624;2024-03-25T10:40:37;100464;;;16;49.4
49583;BME280;36329;48.816;44.624;2024-03-25T10:43:41;100460;;;15.7;50.2
49583;BME280;36329;48.816;44.624;2024-03-25T10:46:46;100458;;;15.7;49.1
49583;BME280;36329;48.816;44.624;2024-03-25T10:49:49;100455;;;15.6;49.9
49583;BME280;36329;48.816;44.624;2024-03-25T10:52:53;100455;;;15.6;49.5
49583;BME280;36329;48.816;44.624;2024-03-25T10:55:56;100449;;;15.7;49.8
49583;BME280;36329;48.816;44.624;2024-03-25T10:59:00;100445;;;15.7;49.8
49583;BME280;36329;48.816;44.624;2024-03-25T11:02:03;100442;;;15.6;50.1
49583;BME280;36329;48.816;44.624;2024-03-25T11:05:06;100433;;;15.5;49.6
49583;BME280;36329;48.816;44.624;2024-03-25T11:08:10;100433;;;15.2;50
49583;BME280;36329;48.816;44.624;2024-03-25T11:11:12;100423;;;15.5;49.2
49583;BME280;36329;48.816;44.624;2024-03-25T11:14:16;100425;;;15.6;49.3
49583;BME280;36329;48.816;44.624;2024-03-25T11:17:18;100428;;;15.6;50.4
49583;BME280;36329;48.816;44.624;2024-03-25T11:20:20;100423;;;15.6;49.5
49583;BME280;36329;48.816;44.624;2024-03-25T11:23:23;100420;;;15.5;50
49583;BME280;36329;48.816;44.624;2024-03-25T11:26:25;100415;;;15.6;50.1
49583;BME280;36329;48.816;44.624;2024-03-25T11:29:28;100415;;;15.4;49.8
49583;BME280;36329;48.816;44.624;2024-03-25T11:32:41;100415;;;15.5;48.9
49583;BME280;36329;48.816;44.624;2024-03-25T11:35:46;100420;;;15.5;50.1
49583;BME280;36329;48.816;44.624;2024-03-25T11:38:57;100422;;;15.5;49.8
49583;BME280;36329;48.816;44.624;2024-03-25T11:42:00;100430;;;15.2;51
49583;BME280;36329;48.816;44.624;2024-03-25T11:45:04;100423;;;15;52.1
49583;BME280;36329;48.816;44.624;2024-03-25T11:48:07;100432;;;15;52.5
49583;BME280;36329;48.816;44.624;2024-03-25T11:51:11;100428;;;14.9;54.2
49583;BME280;36329;48.816;44.624;2024-03-25T11:54:13;100430;;;14.4;53.9
49583;BME280;36329;48.816;44.624;2024-03-25T11:57:16;100429;;;14.4;54.2
49583;BME280;36329;48.816;44.624;2024-03-25T12:00:19;100436;;;14.5;55
49583;BME280;36329;48.816;44.624;2024-03-25T12:03:21;100431;;;14.1;56.7
49583;BME280;36329;48.816;44.624;2024-03-25T12:06:23;100434;;;13.8;57.5
49583;BME280;36329;48.816;44.624;2024-03-25T12:09:25;100434;;;13.8;57.5
49583;BME280;36329;48.816;44.624;2024-03-25T12:12:28;100432;;;13.9;57.8
49583;BME280;36329;48.816;44.624;2024-03-25T12:15:30;100431;;;14;58.3
49583;BME280;36329;48.816;44.624;2024-03-25T12:18:32;100432;;;13.9;58.7
49583;BME280;36329;48.816;44.624;2024-03-25T12:21:34;100431;;;13.8;59.3
49583;BME280;36329;48.816;44.624;2024-03-25T12:24:37;100431;;;13.7;59.6
49583;BME280;36329;48.816;44.624;2024-03-25T12:27:39;100427;;;13.8;59.8
49583;BME280;36329;48.816;44.624;2024-03-25T12:30:49;100428;;;13.9;59.6
49583;BME280;36329;48.816;44.624;2024-03-25T12:33:52;100422;;;13.9;58.6
49583;BME280;36329;48.816;44.624;2024-03-25T12:37:00;100421;;;13.9;58.6
49583;BME280;36329;48.816;44.624;2024-03-25T12:40:05;100421;;;14.1;58.8
49583;BME280;36329;48.816;44.624;2024-03-25T12:43:14;100420;;;14;58
49583;BME280;36329;48.816;44.624;2024-03-25T12:46:17;100422;;;13.9;58.2
49583;BME280;36329;48.816;44.624;2024-03-25T12:49:19;100417;;;13.6;58.3
49583;BME280;36329;48.816;44.624;2024-03-25T12:52:21;100407;;;13.4;59.5
49583;BME280;36329;48.816;44.624;2024-03-25T12:55:23;100411;;;13.4;59.4
49583;BME280;36329;48.816;44.624;2024-03-25T12:58:26;100405;;;13.4;59.5
49583;BME280;36329;48.816;44.624;2024-03-25T13:01:28;100406;;;13.3;59.9
49583;BME280;36329;48.816;44.624;2024-03-25T13:04:30;100403;;;13.2;60.7
49583;BME280;36329;48.816;44.624;2024-03-25T13:07:32;100403;;;13.3;60.8
49583;BME280;36329;48.816;44.624;2024-03-25T13:10:34;100408;;;13.2;61.1
49583;BME280;36329;48.816;44.624;2024-03-25T13:13:37;100403;;;13;61.7
49583;BME280;36329;48.816;44.624;2024-03-25T13:16:39;100399;;;13.1;61.7
49583;BME280;36329;48.816;44.624;2024-03-25T13:19:42;100403;;;13.1;61.6
49583;BME280;36329;48.816;44.624;2024-03-25T13:22:44;100400;;;13.1;62.3
49583;BME280;36329;48.816;44.624;2024-03-25T13:25:46;100392;;;12.9;63.1
49583;BME280;36329;48.816;44.624;2024-03-25T13:28:49;100389;;;12.7;64.1
49583;BME280;36329;48.816;44.624;2024-03-25T13:31:51;100384;;;12.6;64.5
49583;BME280;36329;48.816;44.624;2024-03-25T13:34:53;100383;;;12.6;64.3
49583;BME280;36329;48.816;44.624;2024-03-25T13:37:56;100377;;;12.5;64.2
49583;BME280;36329;48.816;44.624;2024-03-25T13:40:59;100381;;;12.6;63.5
49583;BME280;36329;48.816;44.624;2024-03-25T13:44:01;100378;;;12.5;63.9
49583;BME280;36329;48.816;44.624;2024-03-25T13:47:04;100380;;;12.6;63.2
49583;BME280;36329;48.816;44.624;2024-03-25T13:50:07;100377;;;12.7;63
49583;BME280;36329;48.816;44.624;2024-03-25T13:53:09;100375;;;12.7;62.8
49583;BME280;36329;48.816;44.624;2024-03-25T13:56:11;100375;;;12.6;63.5
49583;BME280;36329;48.816;44.624;2024-03-25T13:59:14;100373;;;12.6;63.1
49583;BME280;36329;48.816;44.624;2024-03-25T14:02:16;100378;;;12.7;63
49583;BME280;36329;48.816;44.624;2024-03-25T14:05:18;100373;;;12.8;62.4
49583;BME280;36329;48.816;44.624;2024-03-25T14:08:21;100376;;;12.9;61.6
49583;BME280;36329;48.816;44.624;2024-03-25T14:11:23;100378;;;12.6;62.4
49583;BME280;36329;48.816;44.624;2024-03-25T14:14:25;100382;;;12.5;63.2
49583;BME280;36329;48.816;44.624;2024-03-25T14:17:27;100386;;;12.6;62.6
49583;BME280;36329;48.816;44.624;2024-03-25T14:20:31;100390;;;12.4;63.1
49583;BME280;36329;48.816;44.624;2024-03-25T14:23:33;100388;;;12;65.2
49583;BME280;36329;48.816;44.624;2024-03-25T14:26:35;100390;;;11.7;66.3
49583;BME280;36329;48.816;44.624;2024-03-25T14:29:37;100390;;;11.5;67.7
49583;BME280;36329;48.816;44.624;2024-03-25T14:32:40;100390;;;11.5;68.1
49583;BME280;36329;48.816;44.624;2024-03-25T14:35:42;100389;;;11.6;67.5
49583;BME280;36329;48.816;44.624;2024-03-25T14:38:44;100391;;;11.5;68
49583;BME280;36329;48.816;44.624;2024-03-25T14:41:46;100393;;;11.5;68
49583;BME280;36329;48.816;44.624;2024-03-25T14:44:49;100397;;;11.6;67.4
49583;BME280;36329;48.816;44.624;2024-03-25T14:47:51;100397;;;11.5;68.2
49583;BME280;36329;48.816;44.624;2024-03-25T14:50:54;100396;;;11.5;68.1
49583;BME280;36329;48.816;44.624;2024-03-25T14:53:56;100399;;;11.5;68.2
49583;BME280;36329;48.816;44.624;2024-03-25T14:56:58;100397;;;11.6;67.6
49583;BME280;36329;48.816;44.624;2024-03-25T15:00:00;100396;;;11.5;68.1
49583;BME280;36329;48.816;44.624;2024-03-25T15:03:03;100397;;;11.4;68.5
49583;BME280;36329;48.816;44.624;2024-03-25T15:06:05;100391;;;11.4;69
49583;BME280;36329;48.816;44.624;2024-03-25T15:09:08;100391;;;11.3;69.2
49583;BME280;36329;48.816;44.624;2024-03-25T15:12:10;100393;;;11.3;69.1
49583;BME280;36329;48.816;44.624;2024-03-25T15:15:12;100392;;;11.3;69.4
49583;BME280;36329;48.816;44.624;2024-03-25T15:18:14;100387;;;11.2;70.3
49583;BME280;36329;48.816;44.624;2024-03-25T15:21:16;100391;;;11.3;69.9
49583;BME280;36329;48.816;44.624;2024-03-25T15:24:19;100390;;;11.3;70.2
49583;BME280;36329;48.816;44.624;2024-03-25T15:27:21;100383;;;11.1;70.8
49583;BME280;36329;48.816;44.624;2024-03-25T15:30:23;100391;;;11.2;70.6
49583;BME280;36329;48.816;44.624;2024-03-25T15:33:25;100392;;;11.2;70.3
49583;BME280;36329;48.816;44.624;2024-03-25T15:36:28;100388;;;11.2;69.6
49583;BME280;36329;48.816;44.624;2024-03-25T15:39:30;100395;;;11.1;69.6
49583;BME280;36329;48.816;44.624;2024-03-25T15:42:33;100398;;;10.7;71.7
49583;BME280;36329;48.816;44.624;2024-03-25T15:45:35;100400;;;10.7;71.8
49583;BME280;36329;48.816;44.624;2024-03-25T15:48:37;100398;;;10.7;72
49583;BME280;36329;48.816;44.624;2024-03-25T15:51:40;100401;;;10.5;72.5
49583;BME280;36329;48.816;44.624;2024-03-25T15:54:43;100400;;;10.5;72.3
49583;BME280;36329;48.816;44.624;2024-03-25T15:57:45;100403;;;10.6;71.3
49583;BME280;36329;48.816;44.624;2024-03-25T16:00:47;100404;;;10.5;71.8
49583;BME280;36329;48.816;44.624;2024-03-25T16:03:50;100401;;;10.5;71.3
49583;BME280;36329;48.816;44.624;2024-03-25T16:06:52;100405;;;10.3;72.3
49583;BME280;36329;48.816;44.624;2024-03-25T16:09:54;100405;;;10.1;72.9
49583;BME280;36329;48.816;44.624;2024-03-25T16:12:58;100398;;;10.3;72
49583;BME280;36329;48.816;44.624;2024-03-25T16:16:02;100398;;;10.3;71.4
49583;BME280;36329;48.816;44.624;2024-03-25T16:19:05;100401;;;10.3;71.3
49583;BME280;36329;48.816;44.624;2024-03-25T16:22:07;100398;;;10.2;71.7
49583;BME280;36329;48.816;44.624;2024-03-25T16:25:09;100398;;;10.2;71.5
49583;BME280;36329;48.816;44.624;2024-03-25T16:28:11;100398;;;10.3;71.4
49583;BME280;36329;48.816;44.624;2024-03-25T16:31:14;100396;;;10.3;70.8
49583;BME280;36329;48.816;44.624;2024-03-25T16:34:16;100395;;;10.3;70.6
49583;BME280;36329;48.816;44.624;2024-03-25T16:37:18;100392;;;10.3;70.7
49583;BME280;36329;48.816;44.624;2024-03-25T16:40:20;100394;;;10.3;70.9
49583;BME280;36329;48.816;44.624;2024-03-25T16:43:22;100396;;;10.3;70.9
49583;BME280;36329;48.816;44.624;2024-03-25T16:46:24;100389;;;10.3;70.6
49583;BME280;36329;48.816;44.624;2024-03-25T16:49:26;100383;;;10.5;70
49583;BME280;36329;48.816;44.624;2024-03-25T16:52:29;100376;;;10.7;69.1
49583;BME280;36329;48.816;44.624;2024-03-25T16:55:31;100382;;;10.6;69
49583;BME280;36329;48.816;44.624;2024-03-25T16:58:34;100377;;;10.7;68.4